sensor_id;sensor_type;location;lat;lon;timestamp;temperature;humidity
51884;DHT22;37915;53.254;6.598;2023-07-20T00:00:53;16.00;99.90
51884;DHT22;37915;53.254;6.598;2023-07-20T00:03:20;16.00;99.90
51884;DHT22;37915;53.254;6.598;2023-07-20T00:05:49;16.00;99.90
51884;DHT22;37915;53.254;6.598;2023-07-20T00:08:16;16.00;99.90
51884;DHT22;37915;53.254;6.598;2023-07-20T00:10:42;16.00;99.90
51884;DHT22;37915;53.254;6.598;2023-07-20T00:13:08;16.00;99.90
51884;DHT22;37915;53.254;6.598;2023-07-20T00:15:34;16.00;99.90
51884;DHT22;37915;53.254;6.598;2023-07-20T00:18:00;16.00;99.90
51884;DHT22;37915;53.254;6.598;2023-07-20T00:20:25;15.90;99.90
51884;DHT22;37915;53.254;6.598;2023-07-20T00:22:51;16.00;99.90
51884;DHT22;37915;53.254;6.598;2023-07-20T00:25:17;15.90;99.90
51884;DHT22;37915;53.254;6.598;2023-07-20T00:27:43;15.90;99.90
51884;DHT22;37915;53.254;6.598;2023-07-20T00:30:10;15.90;99.90
51884;DHT22;37915;53.254;6.598;2023-07-20T00:32:36;15.90;99.90
51884;DHT22;37915;53.254;6.598;2023-07-20T00:35:01;15.90;99.90
51884;DHT22;37915;53.254;6.598;2023-07-20T00:37:28;15.90;99.90
51884;DHT22;37915;53.254;6.598;2023-07-20T00:39:54;15.80;99.90
51884;DHT22;37915;53.254;6.598;2023-07-20T00:42:20;15.80;99.90
51884;DHT22;37915;53.254;6.598;2023-07-20T00:44:46;15.80;99.90
51884;DHT22;37915;53.254;6.598;2023-07-20T00:47:11;15.80;99.90
51884;DHT22;37915;53.254;6.598;2023-07-20T00:49:38;15.70;99.90
51884;DHT22;37915;53.254;6.598;2023-07-20T00:52:06;15.70;99.90
51884;DHT22;37915;53.254;6.598;2023-07-20T00:54:33;15.70;99.90
51884;DHT22;37915;53.254;6.598;2023-07-20T00:57:01;15.70;99.90
51884;DHT22;37915;53.254;6.598;2023-07-20T00:59:27;15.60;99.90
51884;DHT22;37915;53.254;6.598;2023-07-20T01:01:52;15.60;99.90
51884;DHT22;37915;53.254;6.598;2023-07-20T01:04:19;15.50;99.90
51884;DHT22;37915;53.254;6.598;2023-07-20T01:07:14;15.50;99.90
51884;DHT22;37915;53.254;6.598;2023-07-20T01:10:09;15.50;99.90
51884;DHT22;37915;53.254;6.598;2023-07-20T01:12:41;15.40;99.90
51884;DHT22;37915;53.254;6.598;2023-07-20T01:15:08;15.30;99.90
51884;DHT22;37915;53.254;6.598;2023-07-20T01:17:34;15.30;99.90
51884;DHT22;37915;53.254;6.598;2023-07-20T01:20:00;15.30;99.90
51884;DHT22;37915;53.254;6.598;2023-07-20T01:31:12;15.10;99.90
51884;DHT22;37915;53.254;6.598;2023-07-20T01:33:38;15.10;99.90
51884;DHT22;37915;53.254;6.598;2023-07-20T01:36:07;15.00;99.90
51884;DHT22;37915;53.254;6.598;2023-07-20T01:38:33;15.00;99.90
51884;DHT22;37915;53.254;6.598;2023-07-20T01:40:58;15.00;99.90
51884;DHT22;37915;53.254;6.598;2023-07-20T01:43:24;15.00;99.90
51884;DHT22;37915;53.254;6.598;2023-07-20T01:45:50;14.90;99.90
51884;DHT22;37915;53.254;6.598;2023-07-20T01:48:16;14.90;99.90
51884;DHT22;37915;53.254;6.598;2023-07-20T01:50:41;14.90;99.90
51884;DHT22;37915;53.254;6.598;2023-07-20T01:53:08;14.80;99.90
51884;DHT22;37915;53.254;6.598;2023-07-20T01:55:33;14.80;99.90
51884;DHT22;37915;53.254;6.598;2023-07-20T01:57:59;14.80;99.90
51884;DHT22;37915;53.254;6.598;2023-07-20T02:00:26;14.70;99.90
51884;DHT22;37915;53.254;6.598;2023-07-20T02:02:52;14.70;99.90
51884;DHT22;37915;53.254;6.598;2023-07-20T02:05:17;14.60;99.90
51884;DHT22;37915;53.254;6.598;2023-07-20T02:07:43;14.60;99.90
51884;DHT22;37915;53.254;6.598;2023-07-20T02:10:09;14.60;99.90
51884;DHT22;37915;53.254;6.598;2023-07-20T02:12:35;14.50;99.90
51884;DHT22;37915;53.254;6.598;2023-07-20T02:15:02;14.60;99.90
51884;DHT22;37915;53.254;6.598;2023-07-20T02:17:28;14.50;99.90
51884;DHT22;37915;53.254;6.598;2023-07-20T02:19:54;14.50;99.90
51884;DHT22;37915;53.254;6.598;2023-07-20T02:22:21;14.50;99.90
51884;DHT22;37915;53.254;6.598;2023-07-20T02:24:47;14.50;99.90
51884;DHT22;37915;53.254;6.598;2023-07-20T02:27:12;14.40;99.90
51884;DHT22;37915;53.254;6.598;2023-07-20T02:29:40;14.40;99.90
51884;DHT22;37915;53.254;6.598;2023-07-20T02:32:06;14.40;99.90
51884;DHT22;37915;53.254;6.598;2023-07-20T02:34:32;14.40;99.90
51884;DHT22;37915;53.254;6.598;2023-07-20T02:36:58;14.40;99.90
51884;DHT22;37915;53.254;6.598;2023-07-20T02:39:29;14.40;99.90
51884;DHT22;37915;53.254;6.598;2023-07-20T02:41:55;14.40;99.90
51884;DHT22;37915;53.254;6.598;2023-07-20T02:44:21;14.30;99.90
51884;DHT22;37915;53.254;6.598;2023-07-20T02:46:47;14.30;99.90
51884;DHT22;37915;53.254;6.598;2023-07-20T02:49:15;14.30;99.90
51884;DHT22;37915;53.254;6.598;2023-07-20T02:51:41;14.30;99.90
51884;DHT22;37915;53.254;6.598;2023-07-20T02:54:07;14.20;99.90
51884;DHT22;37915;53.254;6.598;2023-07-20T02:56:32;14.20;99.90
51884;DHT22;37915;53.254;6.598;2023-07-20T02:58:58;14.20;99.90
51884;DHT22;37915;53.254;6.598;2023-07-20T03:01:24;14.20;99.90
51884;DHT22;37915;53.254;6.598;2023-07-20T03:03:50;14.10;99.90
51884;DHT22;37915;53.254;6.598;2023-07-20T03:06:16;14.10;99.90
51884;DHT22;37915;53.254;6.598;2023-07-20T03:08:42;14.10;99.90
51884;DHT22;37915;53.254;6.598;2023-07-20T03:11:16;14.10;99.90
51884;DHT22;37915;53.254;6.598;2023-07-20T03:13:42;14.10;99.90
51884;DHT22;37915;53.254;6.598;2023-07-20T03:16:08;14.00;99.90
51884;DHT22;37915;53.254;6.598;2023-07-20T03:18:39;14.10;99.90
51884;DHT22;37915;53.254;6.598;2023-07-20T03:21:06;14.00;99.90
51884;DHT22;37915;53.254;6.598;2023-07-20T03:23:32;14.00;99.90
51884;DHT22;37915;53.254;6.598;2023-07-20T03:25:58;14.00;99.90
51884;DHT22;37915;53.254;6.598;2023-07-20T03:28:24;13.90;99.90
51884;DHT22;37915;53.254;6.598;2023-07-20T03:30:54;13.90;99.90
51884;DHT22;37915;53.254;6.598;2023-07-20T03:33:22;13.90;99.90
51884;DHT22;37915;53.254;6.598;2023-07-20T03:35:47;13.90;99.90
51884;DHT22;37915;53.254;6.598;2023-07-20T03:38:13;13.80;99.90
51884;DHT22;37915;53.254;6.598;2023-07-20T03:40:39;13.80;99.90
51884;DHT22;37915;53.254;6.598;2023-07-20T03:43:04;13.80;99.90
51884;DHT22;37915;53.254;6.598;2023-07-20T03:45:30;13.80;99.90
51884;DHT22;37915;53.254;6.598;2023-07-20T03:47:56;13.80;99.90
51884;DHT22;37915;53.254;6.598;2023-07-20T03:50:21;13.80;99.90
51884;DHT22;37915;53.254;6.598;2023-07-20T03:52:47;13.70;99.90
51884;DHT22;37915;53.254;6.598;2023-07-20T03:55:13;13.70;99.90
51884;DHT22;37915;53.254;6.598;2023-07-20T03:57:38;13.70;99.90
51884;DHT22;37915;53.254;6.598;2023-07-20T04:00:05;13.70;99.90
51884;DHT22;37915;53.254;6.598;2023-07-20T04:02:33;13.70;99.90
51884;DHT22;37915;53.254;6.598;2023-07-20T04:04:59;13.60;99.90
51884;DHT22;37915;53.254;6.598;2023-07-20T04:07:24;13.60;99.90
51884;DHT22;37915;53.254;6.598;2023-07-20T04:09:50;13.60;99.90
51884;DHT22;37915;53.254;6.598;2023-07-20T04:12:16;13.60;99.90
51884;DHT22;37915;53.254;6.598;2023-07-20T04:14:41;13.60;99.90
51884;DHT22;37915;53.254;6.598;2023-07-20T04:17:07;13.70;99.90
51884;DHT22;37915;53.254;6.598;2023-07-20T04:19:33;13.70;99.90
51884;DHT22;37915;53.254;6.598;2023-07-20T04:21:59;13.70;99.90
51884;DHT22;37915;53.254;6.598;2023-07-20T04:24:24;13.80;99.90
51884;DHT22;37915;53.254;6.598;2023-07-20T04:26:50;13.80;99.90
51884;DHT22;37915;53.254;6.598;2023-07-20T04:29:16;13.80;99.90
51884;DHT22;37915;53.254;6.598;2023-07-20T04:31:41;13.90;99.90
51884;DHT22;37915;53.254;6.598;2023-07-20T04:34:07;13.90;99.90
51884;DHT22;37915;53.254;6.598;2023-07-20T04:36:33;13.90;99.90
51884;DHT22;37915;53.254;6.598;2023-07-20T04:38:58;13.90;99.90
51884;DHT22;37915;53.254;6.598;2023-07-20T04:41:24;13.90;99.90
51884;DHT22;37915;53.254;6.598;2023-07-20T04:43:50;14.00;99.90
51884;DHT22;37915;53.254;6.598;2023-07-20T04:46:16;14.00;99.90
51884;DHT22;37915;53.254;6.598;2023-07-20T04:48:43;14.00;99.90
51884;DHT22;37915;53.254;6.598;2023-07-20T04:51:09;14.10;99.90
51884;DHT22;37915;53.254;6.598;2023-07-20T04:53:35;14.10;99.90
51884;DHT22;37915;53.254;6.598;2023-07-20T04:56:01;14.10;99.90
51884;DHT22;37915;53.254;6.598;2023-07-20T04:58:27;14.20;99.90
51884;DHT22;37915;53.254;6.598;2023-07-20T05:00:52;14.20;99.90
51884;DHT22;37915;53.254;6.598;2023-07-20T05:03:18;14.20;99.90
51884;DHT22;37915;53.254;6.598;2023-07-20T05:05:45;14.20;99.90
51884;DHT22;37915;53.254;6.598;2023-07-20T05:08:11;14.30;99.90
51884;DHT22;37915;53.254;6.598;2023-07-20T05:10:36;14.30;99.90
51884;DHT22;37915;53.254;6.598;2023-07-20T05:13:02;14.30;99.90
51884;DHT22;37915;53.254;6.598;2023-07-20T05:15:28;14.40;99.90
51884;DHT22;37915;53.254;6.598;2023-07-20T05:17:53;14.40;99.90
51884;DHT22;37915;53.254;6.598;2023-07-20T05:20:19;14.40;99.90
51884;DHT22;37915;53.254;6.598;2023-07-20T05:22:45;14.50;99.90
51884;DHT22;37915;53.254;6.598;2023-07-20T05:25:11;14.50;99.90
51884;DHT22;37915;53.254;6.598;2023-07-20T05:27:38;14.50;99.90
51884;DHT22;37915;53.254;6.598;2023-07-20T05:30:05;14.50;99.90
51884;DHT22;37915;53.254;6.598;2023-07-20T05:32:30;14.60;99.90
51884;DHT22;37915;53.254;6.598;2023-07-20T05:34:56;14.60;99.90
51884;DHT22;37915;53.254;6.598;2023-07-20T05:37:22;14.70;99.90
51884;DHT22;37915;53.254;6.598;2023-07-20T05:39:48;14.70;99.90
51884;DHT22;37915;53.254;6.598;2023-07-20T05:42:14;14.80;99.90
51884;DHT22;37915;53.254;6.598;2023-07-20T05:44:40;14.80;99.90
51884;DHT22;37915;53.254;6.598;2023-07-20T05:47:06;14.90;99.90
51884;DHT22;37915;53.254;6.598;2023-07-20T05:49:32;14.90;99.90
51884;DHT22;37915;53.254;6.598;2023-07-20T05:51:58;15.00;99.90
51884;DHT22;37915;53.254;6.598;2023-07-20T05:54:24;15.00;99.90
51884;DHT22;37915;53.254;6.598;2023-07-20T05:56:51;15.10;99.90
51884;DHT22;37915;53.254;6.598;2023-07-20T05:59:16;15.20;99.90
51884;DHT22;37915;53.254;6.598;2023-07-20T06:01:43;15.30;99.90
51884;DHT22;37915;53.254;6.598;2023-07-20T06:04:09;15.30;99.90
51884;DHT22;37915;53.254;6.598;2023-07-20T06:06:35;15.40;99.90
51884;DHT22;37915;53.254;6.598;2023-07-20T06:09:01;15.50;99.90
51884;DHT22;37915;53.254;6.598;2023-07-20T06:11:31;15.60;99.90
51884;DHT22;37915;53.254;6.598;2023-07-20T06:13:57;15.70;99.90
51884;DHT22;37915;53.254;6.598;2023-07-20T06:16:23;15.80;99.90
51884;DHT22;37915;53.254;6.598;2023-07-20T06:18:48;15.90;99.90
51884;DHT22;37915;53.254;6.598;2023-07-20T06:21:14;15.90;99.90
51884;DHT22;37915;53.254;6.598;2023-07-20T06:23:40;16.00;99.90
51884;DHT22;37915;53.254;6.598;2023-07-20T06:26:07;16.10;99.90
51884;DHT22;37915;53.254;6.598;2023-07-20T06:28:33;16.10;99.90
51884;DHT22;37915;53.254;6.598;2023-07-20T06:31:02;16.20;99.90
51884;DHT22;37915;53.254;6.598;2023-07-20T06:33:28;16.30;99.90
51884;DHT22;37915;53.254;6.598;2023-07-20T06:35:54;16.40;99.90
51884;DHT22;37915;53.254;6.598;2023-07-20T06:38:22;16.50;99.90
51884;DHT22;37915;53.254;6.598;2023-07-20T06:40:49;16.60;99.90
51884;DHT22;37915;53.254;6.598;2023-07-20T06:43:14;16.60;99.90
51884;DHT22;37915;53.254;6.598;2023-07-20T06:45:41;16.70;99.90
51884;DHT22;37915;53.254;6.598;2023-07-20T06:48:07;16.70;99.90
51884;DHT22;37915;53.254;6.598;2023-07-20T06:50:32;16.70;99.90
51884;DHT22;37915;53.254;6.598;2023-07-20T06:52:58;16.70;99.90
51884;DHT22;37915;53.254;6.598;2023-07-20T06:55:25;16.70;99.90
51884;DHT22;37915;53.254;6.598;2023-07-20T06:57:51;16.80;99.90
51884;DHT22;37915;53.254;6.598;2023-07-20T07:00:17;16.80;99.90
51884;DHT22;37915;53.254;6.598;2023-07-20T07:02:43;16.90;99.90
51884;DHT22;37915;53.254;6.598;2023-07-20T07:05:09;17.00;99.90
51884;DHT22;37915;53.254;6.598;2023-07-20T07:07:34;17.00;99.90
51884;DHT22;37915;53.254;6.598;2023-07-20T07:10:01;17.10;99.90
51884;DHT22;37915;53.254;6.598;2023-07-20T07:12:30;17.20;99.90
51884;DHT22;37915;53.254;6.598;2023-07-20T07:14:55;17.30;99.90
51884;DHT22;37915;53.254;6.598;2023-07-20T07:17:21;17.40;99.90
51884;DHT22;37915;53.254;6.598;2023-07-20T07:19:47;17.60;99.90
51884;DHT22;37915;53.254;6.598;2023-07-20T07:22:12;17.60;99.90
51884;DHT22;37915;53.254;6.598;2023-07-20T07:24:39;17.70;99.90
51884;DHT22;37915;53.254;6.598;2023-07-20T07:27:08;17.80;99.90
51884;DHT22;37915;53.254;6.598;2023-07-20T07:29:34;17.90;99.90
51884;DHT22;37915;53.254;6.598;2023-07-20T07:32:00;18.00;99.90
51884;DHT22;37915;53.254;6.598;2023-07-20T07:34:27;18.20;99.90
51884;DHT22;37915;53.254;6.598;2023-07-20T07:36:53;18.30;99.90
51884;DHT22;37915;53.254;6.598;2023-07-20T07:39:19;18.50;99.90
51884;DHT22;37915;53.254;6.598;2023-07-20T07:41:44;18.60;99.90
51884;DHT22;37915;53.254;6.598;2023-07-20T07:44:10;18.70;99.90
51884;DHT22;37915;53.254;6.598;2023-07-20T07:46:36;18.90;99.90
51884;DHT22;37915;53.254;6.598;2023-07-20T07:49:01;18.90;99.90
51884;DHT22;37915;53.254;6.598;2023-07-20T07:51:27;18.70;99.90
51884;DHT22;37915;53.254;6.598;2023-07-20T07:53:53;18.60;99.90
51884;DHT22;37915;53.254;6.598;2023-07-20T07:56:18;18.40;99.90
51884;DHT22;37915;53.254;6.598;2023-07-20T07:58:49;18.40;99.90
51884;DHT22;37915;53.254;6.598;2023-07-20T08:01:15;18.40;99.90
51884;DHT22;37915;53.254;6.598;2023-07-20T08:03:40;18.60;99.90
51884;DHT22;37915;53.254;6.598;2023-07-20T08:06:06;18.80;99.90
51884;DHT22;37915;53.254;6.598;2023-07-20T08:08:32;18.90;99.90
51884;DHT22;37915;53.254;6.598;2023-07-20T08:10:58;19.00;99.90
51884;DHT22;37915;53.254;6.598;2023-07-20T08:13:24;19.00;99.90
51884;DHT22;37915;53.254;6.598;2023-07-20T08:15:51;18.80;99.90
51884;DHT22;37915;53.254;6.598;2023-07-20T08:18:19;18.80;99.90
51884;DHT22;37915;53.254;6.598;2023-07-20T08:20:45;18.80;99.90
51884;DHT22;37915;53.254;6.598;2023-07-20T08:23:12;19.00;99.90
51884;DHT22;37915;53.254;6.598;2023-07-20T08:25:38;19.10;99.90
51884;DHT22;37915;53.254;6.598;2023-07-20T08:28:07;19.20;99.90
51884;DHT22;37915;53.254;6.598;2023-07-20T08:30:40;19.20;99.90
51884;DHT22;37915;53.254;6.598;2023-07-20T08:33:07;19.20;99.90
51884;DHT22;37915;53.254;6.598;2023-07-20T08:35:33;19.30;99.90
51884;DHT22;37915;53.254;6.598;2023-07-20T08:37:59;19.40;99.90
51884;DHT22;37915;53.254;6.598;2023-07-20T08:40:24;19.60;99.90
51884;DHT22;37915;53.254;6.598;2023-07-20T08:42:50;19.60;99.90
51884;DHT22;37915;53.254;6.598;2023-07-20T08:45:17;19.80;99.90
51884;DHT22;37915;53.254;6.598;2023-07-20T08:47:44;20.00;99.90
51884;DHT22;37915;53.254;6.598;2023-07-20T08:50:11;20.00;99.90
51884;DHT22;37915;53.254;6.598;2023-07-20T08:52:38;20.10;99.90
51884;DHT22;37915;53.254;6.598;2023-07-20T08:55:04;20.20;99.90
51884;DHT22;37915;53.254;6.598;2023-07-20T08:57:33;20.10;99.90
51884;DHT22;37915;53.254;6.598;2023-07-20T09:00:01;19.90;99.90
51884;DHT22;37915;53.254;6.598;2023-07-20T09:02:31;19.90;99.90
51884;DHT22;37915;53.254;6.598;2023-07-20T09:04:59;20.10;99.90
51884;DHT22;37915;53.254;6.598;2023-07-20T09:07:25;20.40;99.90
51884;DHT22;37915;53.254;6.598;2023-07-20T09:09:51;20.50;99.90
51884;DHT22;37915;53.254;6.598;2023-07-20T09:12:16;20.60;99.90
51884;DHT22;37915;53.254;6.598;2023-07-20T09:14:43;20.70;99.90
51884;DHT22;37915;53.254;6.598;2023-07-20T09:17:13;20.70;99.90
51884;DHT22;37915;53.254;6.598;2023-07-20T09:19:45;20.70;99.90
51884;DHT22;37915;53.254;6.598;2023-07-20T09:22:10;20.70;99.90
51884;DHT22;37915;53.254;6.598;2023-07-20T09:24:36;20.90;99.90
51884;DHT22;37915;53.254;6.598;2023-07-20T09:27:02;21.10;99.90
51884;DHT22;37915;53.254;6.598;2023-07-20T09:29:31;21.40;99.90
51884;DHT22;37915;53.254;6.598;2023-07-20T09:32:04;21.50;99.90
51884;DHT22;37915;53.254;6.598;2023-07-20T09:34:30;21.40;99.90
51884;DHT22;37915;53.254;6.598;2023-07-20T09:36:59;21.10;99.90
51884;DHT22;37915;53.254;6.598;2023-07-20T09:39:26;21.10;99.90
51884;DHT22;37915;53.254;6.598;2023-07-20T09:41:52;21.20;99.90
51884;DHT22;37915;53.254;6.598;2023-07-20T09:44:18;21.40;99.90
51884;DHT22;37915;53.254;6.598;2023-07-20T09:46:50;21.60;99.90
51884;DHT22;37915;53.254;6.598;2023-07-20T09:49:18;21.60;99.90
51884;DHT22;37915;53.254;6.598;2023-07-20T09:51:45;21.50;99.90
51884;DHT22;37915;53.254;6.598;2023-07-20T09:54:13;21.30;99.90
51884;DHT22;37915;53.254;6.598;2023-07-20T09:56:40;21.00;99.90
51884;DHT22;37915;53.254;6.598;2023-07-20T09:59:06;20.60;99.90
51884;DHT22;37915;53.254;6.598;2023-07-20T10:01:32;20.40;99.90
51884;DHT22;37915;53.254;6.598;2023-07-20T10:04:03;20.20;99.90
51884;DHT22;37915;53.254;6.598;2023-07-20T10:06:32;20.20;99.90
51884;DHT22;37915;53.254;6.598;2023-07-20T10:09:02;20.50;99.90
51884;DHT22;37915;53.254;6.598;2023-07-20T10:11:34;20.80;99.90
51884;DHT22;37915;53.254;6.598;2023-07-20T10:14:03;21.10;99.90
51884;DHT22;37915;53.254;6.598;2023-07-20T10:16:35;21.20;99.90
51884;DHT22;37915;53.254;6.598;2023-07-20T10:19:07;21.20;99.90
51884;DHT22;37915;53.254;6.598;2023-07-20T10:21:42;21.00;99.90
51884;DHT22;37915;53.254;6.598;2023-07-20T10:24:08;21.10;99.90
51884;DHT22;37915;53.254;6.598;2023-07-20T10:26:34;21.20;99.90
51884;DHT22;37915;53.254;6.598;2023-07-20T10:29:00;21.20;99.90
51884;DHT22;37915;53.254;6.598;2023-07-20T10:31:26;21.40;99.90
51884;DHT22;37915;53.254;6.598;2023-07-20T10:33:56;21.50;99.90
51884;DHT22;37915;53.254;6.598;2023-07-20T10:36:27;21.40;99.90
51884;DHT22;37915;53.254;6.598;2023-07-20T10:38:53;21.10;99.90
51884;DHT22;37915;53.254;6.598;2023-07-20T10:41:28;21.00;99.90
51884;DHT22;37915;53.254;6.598;2023-07-20T10:44:05;21.10;99.90
51884;DHT22;37915;53.254;6.598;2023-07-20T10:49:05;21.50;99.90
51884;DHT22;37915;53.254;6.598;2023-07-20T10:51:39;21.70;99.90
51884;DHT22;37915;53.254;6.598;2023-07-20T10:54:09;21.90;99.90
51884;DHT22;37915;53.254;6.598;2023-07-20T10:56:34;22.00;99.90
51884;DHT22;37915;53.254;6.598;2023-07-20T10:59:01;22.00;99.90
51884;DHT22;37915;53.254;6.598;2023-07-20T11:01:30;22.10;99.90
51884;DHT22;37915;53.254;6.598;2023-07-20T11:04:00;22.10;99.90
51884;DHT22;37915;53.254;6.598;2023-07-20T11:09:09;22.30;99.90
51884;DHT22;37915;53.254;6.598;2023-07-20T11:11:41;22.50;99.90
51884;DHT22;37915;53.254;6.598;2023-07-20T11:14:10;22.50;99.90
51884;DHT22;37915;53.254;6.598;2023-07-20T11:16:38;22.50;99.90
51884;DHT22;37915;53.254;6.598;2023-07-20T11:19:05;22.70;99.90
51884;DHT22;37915;53.254;6.598;2023-07-20T11:21:38;22.80;99.90
51884;DHT22;37915;53.254;6.598;2023-07-20T11:24:06;22.90;99.90
51884;DHT22;37915;53.254;6.598;2023-07-20T11:26:43;22.80;99.90
51884;DHT22;37915;53.254;6.598;2023-07-20T11:29:09;22.70;99.90
51884;DHT22;37915;53.254;6.598;2023-07-20T11:31:40;22.80;99.90
51884;DHT22;37915;53.254;6.598;2023-07-20T11:34:09;22.60;99.90
51884;DHT22;37915;53.254;6.598;2023-07-20T11:36:35;22.50;99.90
51884;DHT22;37915;53.254;6.598;2023-07-20T11:39:01;22.50;99.90
51884;DHT22;37915;53.254;6.598;2023-07-20T11:41:26;22.60;99.90
51884;DHT22;37915;53.254;6.598;2023-07-20T11:43:53;22.70;99.90
51884;DHT22;37915;53.254;6.598;2023-07-20T11:46:19;22.70;99.90
51884;DHT22;37915;53.254;6.598;2023-07-20T11:48:45;22.80;99.90
51884;DHT22;37915;53.254;6.598;2023-07-20T11:51:16;22.90;99.90
51884;DHT22;37915;53.254;6.598;2023-07-20T11:53:46;22.80;99.80
51884;DHT22;37915;53.254;6.598;2023-07-20T11:56:12;22.60;99.90
51884;DHT22;37915;53.254;6.598;2023-07-20T11:58:45;22.60;99.90
51884;DHT22;37915;53.254;6.598;2023-07-20T12:01:14;22.70;99.90
51884;DHT22;37915;53.254;6.598;2023-07-20T12:03:42;22.80;99.90
51884;DHT22;37915;53.254;6.598;2023-07-20T12:06:08;23.00;99.80
51884;DHT22;37915;53.254;6.598;2023-07-20T12:08:34;23.00;99.50
51884;DHT22;37915;53.254;6.598;2023-07-20T12:11:00;22.80;99.50
51884;DHT22;37915;53.254;6.598;2023-07-20T12:13:41;22.70;99.50
51884;DHT22;37915;53.254;6.598;2023-07-20T12:16:12;22.70;99.30
51884;DHT22;37915;53.254;6.598;2023-07-20T12:18:38;22.80;99.30
51884;DHT22;37915;53.254;6.598;2023-07-20T12:21:06;22.90;99.30
51884;DHT22;37915;53.254;6.598;2023-07-20T12:23:39;23.00;99.20
51884;DHT22;37915;53.254;6.598;2023-07-20T12:26:09;23.20;98.90
51884;DHT22;37915;53.254;6.598;2023-07-20T12:28:42;23.40;98.90
51884;DHT22;37915;53.254;6.598;2023-07-20T12:31:11;23.50;98.40
51884;DHT22;37915;53.254;6.598;2023-07-20T12:33:38;23.30;98.30
51884;DHT22;37915;53.254;6.598;2023-07-20T12:36:04;23.10;98.70
51884;DHT22;37915;53.254;6.598;2023-07-20T12:38:30;22.80;98.70
51884;DHT22;37915;53.254;6.598;2023-07-20T12:40:57;22.50;98.80
51884;DHT22;37915;53.254;6.598;2023-07-20T12:43:24;22.20;98.90
51884;DHT22;37915;53.254;6.598;2023-07-20T12:45:50;22.00;99.00
51884;DHT22;37915;53.254;6.598;2023-07-20T12:48:15;21.70;99.20
51884;DHT22;37915;53.254;6.598;2023-07-20T12:50:41;21.60;99.40
51884;DHT22;37915;53.254;6.598;2023-07-20T12:53:07;21.50;99.70
51884;DHT22;37915;53.254;6.598;2023-07-20T12:55:33;21.30;99.90
51884;DHT22;37915;53.254;6.598;2023-07-20T12:57:59;21.20;99.90
51884;DHT22;37915;53.254;6.598;2023-07-20T13:00:24;21.10;99.90
51884;DHT22;37915;53.254;6.598;2023-07-20T13:02:51;21.20;99.90
51884;DHT22;37915;53.254;6.598;2023-07-20T13:05:17;21.20;99.90
51884;DHT22;37915;53.254;6.598;2023-07-20T13:07:43;21.20;99.90
51884;DHT22;37915;53.254;6.598;2023-07-20T13:10:09;21.20;99.90
51884;DHT22;37915;53.254;6.598;2023-07-20T13:12:36;21.30;99.90
51884;DHT22;37915;53.254;6.598;2023-07-20T13:15:03;21.20;99.90
51884;DHT22;37915;53.254;6.598;2023-07-20T13:17:33;21.10;99.90
51884;DHT22;37915;53.254;6.598;2023-07-20T13:19:59;21.00;99.90
51884;DHT22;37915;53.254;6.598;2023-07-20T13:22:25;20.90;99.90
51884;DHT22;37915;53.254;6.598;2023-07-20T13:24:50;20.90;99.90
51884;DHT22;37915;53.254;6.598;2023-07-20T13:27:17;20.80;99.90
51884;DHT22;37915;53.254;6.598;2023-07-20T13:29:43;20.70;99.90
51884;DHT22;37915;53.254;6.598;2023-07-20T13:32:09;20.50;99.90
51884;DHT22;37915;53.254;6.598;2023-07-20T13:34:35;20.50;99.90
51884;DHT22;37915;53.254;6.598;2023-07-20T13:37:02;20.40;99.90
51884;DHT22;37915;53.254;6.598;2023-07-20T13:39:27;20.40;99.90
51884;DHT22;37915;53.254;6.598;2023-07-20T13:41:54;20.30;99.90
51884;DHT22;37915;53.254;6.598;2023-07-20T13:44:20;20.30;99.90
51884;DHT22;37915;53.254;6.598;2023-07-20T13:46:47;20.20;99.90
51884;DHT22;37915;53.254;6.598;2023-07-20T13:49:12;20.20;99.90
51884;DHT22;37915;53.254;6.598;2023-07-20T13:51:39;20.20;99.90
51884;DHT22;37915;53.254;6.598;2023-07-20T13:54:06;20.00;99.90
51884;DHT22;37915;53.254;6.598;2023-07-20T13:56:31;20.00;99.90
51884;DHT22;37915;53.254;6.598;2023-07-20T13:58:57;20.20;99.90
51884;DHT22;37915;53.254;6.598;2023-07-20T14:01:23;20.40;99.90
51884;DHT22;37915;53.254;6.598;2023-07-20T14:03:50;20.60;99.90
51884;DHT22;37915;53.254;6.598;2023-07-20T14:06:16;20.80;99.90
51884;DHT22;37915;53.254;6.598;2023-07-20T14:08:43;20.70;99.90
51884;DHT22;37915;53.254;6.598;2023-07-20T14:11:12;20.80;99.90
51884;DHT22;37915;53.254;6.598;2023-07-20T14:13:38;20.80;99.90
51884;DHT22;37915;53.254;6.598;2023-07-20T14:16:04;20.90;99.90
51884;DHT22;37915;53.254;6.598;2023-07-20T14:18:30;21.20;99.90
51884;DHT22;37915;53.254;6.598;2023-07-20T14:20:56;21.60;99.90
51884;DHT22;37915;53.254;6.598;2023-07-20T14:23:21;21.90;99.90
51884;DHT22;37915;53.254;6.598;2023-07-20T14:25:48;22.10;99.90
51884;DHT22;37915;53.254;6.598;2023-07-20T14:28:13;22.30;99.90
51884;DHT22;37915;53.254;6.598;2023-07-20T14:30:39;22.50;99.90
51884;DHT22;37915;53.254;6.598;2023-07-20T14:33:05;22.70;99.90
51884;DHT22;37915;53.254;6.598;2023-07-20T14:35:31;22.70;99.90
51884;DHT22;37915;53.254;6.598;2023-07-20T14:37:57;22.70;99.90
51884;DHT22;37915;53.254;6.598;2023-07-20T14:40:23;22.60;99.90
51884;DHT22;37915;53.254;6.598;2023-07-20T14:42:49;22.70;99.90
51884;DHT22;37915;53.254;6.598;2023-07-20T14:45:15;22.80;99.90
51884;DHT22;37915;53.254;6.598;2023-07-20T14:47:40;22.90;99.90
51884;DHT22;37915;53.254;6.598;2023-07-20T14:50:08;22.80;99.90
51884;DHT22;37915;53.254;6.598;2023-07-20T14:52:34;22.80;99.90
51884;DHT22;37915;53.254;6.598;2023-07-20T14:55:00;22.70;99.90
51884;DHT22;37915;53.254;6.598;2023-07-20T14:57:25;22.50;99.90
51884;DHT22;37915;53.254;6.598;2023-07-20T14:59:51;22.50;99.90
51884;DHT22;37915;53.254;6.598;2023-07-20T15:02:18;22.60;99.90
51884;DHT22;37915;53.254;6.598;2023-07-20T15:04:48;22.60;99.90
51884;DHT22;37915;53.254;6.598;2023-07-20T15:07:16;22.50;99.90
51884;DHT22;37915;53.254;6.598;2023-07-20T15:09:42;22.40;99.90
51884;DHT22;37915;53.254;6.598;2023-07-20T15:12:08;22.10;99.90
51884;DHT22;37915;53.254;6.598;2023-07-20T15:14:34;22.00;99.90
51884;DHT22;37915;53.254;6.598;2023-07-20T15:17:00;21.90;99.90
51884;DHT22;37915;53.254;6.598;2023-07-20T15:19:26;21.70;99.90
51884;DHT22;37915;53.254;6.598;2023-07-20T15:21:52;21.70;99.90
51884;DHT22;37915;53.254;6.598;2023-07-20T15:24:17;21.60;99.90
51884;DHT22;37915;53.254;6.598;2023-07-20T15:26:43;21.50;99.90
51884;DHT22;37915;53.254;6.598;2023-07-20T15:29:09;21.40;99.90
51884;DHT22;37915;53.254;6.598;2023-07-20T15:31:35;21.20;99.90
51884;DHT22;37915;53.254;6.598;2023-07-20T15:34:01;21.10;99.90
51884;DHT22;37915;53.254;6.598;2023-07-20T15:36:27;20.90;99.90
51884;DHT22;37915;53.254;6.598;2023-07-20T15:38:53;20.80;99.90
51884;DHT22;37915;53.254;6.598;2023-07-20T15:41:18;20.60;99.90